Time;durP1;ratioP1;P1;durP2;ratioP2;P2;SDS_P1;SDS_P2;PMS_P1;PMS_P2;Temp;Humidity;BMP_temperature;BMP_pressure;BME280_temperature;BME280_humidity;BME280_pressure;Samples;Min_cycle;Max_cycle;Signal;HPM_P1;HPM_P2
2023/01/29 00:02:10;;;;;;;9.27;7.47;;;;;;;18.77;41.36;101858.47;5034419;28;20056;-51
2023/01/29 00:04:37;;;;;;;11.32;8.90;;;;;;;18.77;41.12;101864.69;5034977;28;20053;-54
2023/01/29 00:07:05;;;;;;;9.95;8.88;;;;;;;18.77;41.30;101862.03;5035168;28;20049;-51
2023/01/29 00:09:32;;;;;;;11.82;8.20;;;;;;;18.76;41.26;101863.00;5040609;28;20450;-47
2023/01/29 00:11:59;;;;;;;10.35;8.07;;;;;;;18.76;41.29;101859.44;5046016;28;20488;-46
2023/01/29 00:14:26;;;;;;;11.70;9.45;;;;;;;18.77;40.46;101869.22;5042519;28;20041;-46
2023/01/29 00:16:54;;;;;;;11.00;8.30;;;;;;;18.77;41.48;101875.44;5033886;28;20050;-49
2023/01/29 00:19:21;;;;;;;12.38;8.70;;;;;;;18.77;41.08;101869.22;5034554;28;20050;-47
2023/01/29 00:21:48;;;;;;;9.93;8.43;;;;;;;18.75;41.34;101861.25;5034687;28;20057;-48
2023/01/29 00:24:16;;;;;;;9.48;7.78;;;;;;;18.74;41.60;101870.25;5033180;28;20064;-49
2023/01/29 00:26:43;;;;;;;9.85;7.88;;;;;;;18.74;41.29;101867.59;5035013;28;20045;-47
2023/01/29 00:29:10;;;;;;;9.77;8.18;;;;;;;18.72;41.64;101860.63;5034741;28;20507;-50
2023/01/29 00:31:38;;;;;;;11.77;8.18;;;;;;;18.71;41.42;101865.09;5034720;28;20046;-51
2023/01/29 00:34:06;;;;;;;11.85;8.38;;;;;;;18.71;41.24;101865.09;5033455;28;20060;-51
2023/01/29 00:36:33;;;;;;;10.63;8.23;;;;;;;18.70;41.22;101866.06;5034659;28;20511;-50
2023/01/29 00:39:09;;;;;;;9.45;7.70;;;;;;;18.69;41.19;101863.47;5033517;28;20056;-48
2023/01/29 00:49:55;;;;;;;9.23;7.32;;;;;;;18.66;41.09;101875.25;5033431;28;20049;-48
2023/01/29 00:52:23;;;;;;;8.57;7.22;;;;;;;18.65;41.21;101873.53;5033656;28;20057;-47
2023/01/29 00:54:55;;;;;;;13.50;7.82;;;;;;;18.64;41.08;101879.88;5034196;28;20499;-49
2023/01/29 00:57:25;;;;;;;10.07;7.55;;;;;;;18.64;41.01;101874.50;5034568;28;20483;-48
2023/01/29 00:59:53;;;;;;;8.82;7.28;;;;;;;18.65;41.09;101875.38;5032933;28;20061;-48
2023/01/29 01:05:12;;;;;;;9.88;7.75;;;;;;;18.63;41.14;101886.16;5034546;28;20380;-51
2023/01/29 01:07:40;;;;;;;9.10;6.97;;;;;;;18.63;40.97;101886.16;5034416;28;20054;-52
2023/01/29 01:10:21;;;;;;;8.63;7.60;;;;;;;18.63;41.08;101891.53;5032903;28;20531;-51
2023/01/29 01:12:54;;;;;;;9.63;7.22;;;;;;;18.62;41.11;101887.16;5032335;28;20392;-51
2023/01/29 01:15:24;;;;;;;8.57;6.93;;;;;;;18.62;41.15;101886.28;5033467;28;20049;-51
2023/01/29 01:17:57;;;;;;;8.93;7.43;;;;;;;18.61;41.10;101885.44;5033935;28;20054;-51
2023/01/29 01:20:28;;;;;;;11.07;7.93;;;;;;;18.61;41.04;101887.25;5032772;28;20052;-47
2023/01/29 01:22:56;;;;;;;10.00;8.18;;;;;;;18.60;41.03;101893.59;5034093;28;20049;-47
2023/01/29 01:25:25;;;;;;;10.10;7.60;;;;;;;18.60;40.98;101896.28;5033960;28;20052;-47
2023/01/29 01:27:53;;;;;;;9.27;7.60;;;;;;;18.60;41.11;101893.59;5033821;28;20591;-48
2023/01/29 01:30:21;;;;;;;9.48;7.22;;;;;;;18.59;41.18;101894.53;5033799;28;20064;-47
2023/01/29 01:32:49;;;;;;;10.15;7.05;;;;;;;18.59;41.17;101899.88;5033647;28;20049;-45
2023/01/29 01:35:17;;;;;;;10.80;7.60;;;;;;;18.58;41.05;101901.72;5033815;28;20045;-47
2023/01/29 01:37:45;;;;;;;8.65;7.38;;;;;;;18.57;41.04;101902.69;5032287;28;20053;-45
2023/01/29 01:40:19;;;;;;;8.90;6.60;;;;;;;18.57;41.13;101908.06;5033910;28;20064;-52
2023/01/29 01:42:48;;;;;;;9.30;7.70;;;;;;;18.56;41.27;101903.66;5033649;28;20412;-50
2023/01/29 01:45:22;;;;;;;9.07;7.05;;;;;;;18.56;41.17;101903.66;5033682;28;20056;-48
2023/01/29 01:47:54;;;;;;;8.45;7.22;;;;;;;18.56;41.34;101900.13;5033372;28;20474;-49
2023/01/29 01:50:33;;;;;;;8.77;7.63;;;;;;;18.55;41.20;101904.59;5033263;28;20053;-49
2023/01/29 01:53:07;;;;;;;9.00;6.88;;;;;;;18.55;41.18;101893.88;5033268;28;20045;-49
2023/01/29 01:55:40;;;;;;;9.43;7.57;;;;;;;18.54;41.02;101895.69;5032062;28;20060;-50
2023/01/29 01:58:12;;;;;;;8.93;7.63;;;;;;;18.54;41.00;101897.50;5033291;28;20053;-47
2023/01/29 02:00:41;;;;;;;10.15;6.93;;;;;;;18.53;40.94;101896.66;5015369;28;20046;-52
2023/01/29 02:11:45;;;;;;;8.00;6.60;;;;;;;18.52;40.94;101904.81;5033329;28;20037;-54
2023/01/29 02:14:13;;;;;;;9.48;7.35;;;;;;;18.52;41.02;101904.81;5033347;28;20049;-51
2023/01/29 02:16:40;;;;;;;9.82;7.80;;;;;;;18.52;40.86;101912.84;5032327;28;20050;-51
2023/01/29 02:19:32;;;;;;;9.23;7.63;;;;;;;18.53;40.91;101919.94;5033978;28;20056;-52
2023/01/29 02:22:05;;;;;;;9.40;6.80;;;;;;;18.52;40.97;101912.84;5033028;28;20412;-50
2023/01/29 02:24:57;;;;;;;8.82;7.22;;;;;;;18.51;40.88;101914.69;5033342;28;20049;-51
2023/01/29 02:27:48;;;;;;;8.35;6.90;;;;;;;18.50;40.84;101910.25;5036284;28;20056;-51
2023/01/29 02:30:32;;;;;;;9.05;6.82;;;;;;;18.51;41.15;101916.47;5015138;28;20057;-47
2023/01/29 02:33:09;;;;;;;8.70;6.82;;;;;;;18.51;41.01;101912.00;5015446;28;20058;-49
2023/01/29 02:35:43;;;;;;;7.95;6.85;;;;;;;18.51;41.06;101914.69;5014542;28;20543;-48
2023/01/29 02:38:39;;;;;;;8.45;6.57;;;;;;;18.50;41.21;101912.94;4998488;28;20124;-51
2023/01/29 02:41:06;;;;;;;9.95;7.15;;;;;;;18.51;41.12;101916.47;4997880;28;20061;-50
2023/01/29 02:43:51;;;;;;;9.00;6.70;;;;;;;18.50;41.10;101914.75;5015082;28;20057;-51
2023/01/29 02:46:46;;;;;;;8.20;6.85;;;;;;;18.50;40.92;101914.75;4998316;28;20061;-52
2023/01/29 02:49:22;;;;;;;;;;;;;;;18.50;41.02;101912.09;5015357;28;20062;-48
2023/01/29 02:52:08;;;;;;;9.05;7.05;;;;;;;18.49;41.14;101915.72;4998483;28;19929;-49
2023/01/29 02:54:58;;;;;;;7.53;6.32;;;;;;;18.49;40.86;101918.41;5014882;28;20069;-48
2023/01/29 02:57:30;;;;;;;7.95;5.97;;;;;;;18.48;41.03;101917.56;4997956;28;20061;-48
2023/01/29 03:00:07;;;;;;;8.57;6.35;;;;;;;18.48;41.12;101916.69;4998424;28;20049;-48
2023/01/29 03:02:41;;;;;;;9.20;7.13;;;;;;;18.47;40.93;101921.22;4997964;28;20050;-47
2023/01/29 03:05:20;;;;;;;10.43;7.63;;;;;;;18.47;40.67;101928.38;5013597;28;20049;-47
2023/01/29 03:07:57;;;;;;;9.15;6.68;;;;;;;18.47;40.76;101928.38;5027896;28;20065;-49
2023/01/29 03:11:01;;;;;;;10.02;7.03;;;;;;;18.47;40.82;101920.31;5035745;28;20518;-51
2023/01/29 03:13:55;;;;;;;7.57;6.22;;;;;;;18.47;40.75;101926.56;5026653;28;20045;-50
2023/01/29 03:16:35;;;;;;;8.80;7.15;;;;;;;18.46;40.81;101929.34;5034638;28;20050;-50
2023/01/29 03:19:10;;;;;;;8.27;6.75;;;;;;;18.45;40.88;101924.94;5034988;28;20053;-50
2023/01/29 03:21:58;;;;;;;8.10;7.05;;;;;;;18.47;40.92;101928.38;5034904;28;20500;-52
2023/01/29 03:34:00;;;;;;;6.85;6.15;;;;;;;18.46;40.80;101926.66;5034487;28;20053;-47
2023/01/29 03:36:44;;;;;;;7.70;6.15;;;;;;;18.46;40.68;101926.66;5035578;28;20476;-47
2023/01/29 03:39:14;;;;;;;6.70;5.60;;;;;;;18.45;40.87;101927.63;5034553;28;20060;-50
2023/01/29 03:42:11;;;;;;;8.30;7.03;;;;;;;18.45;40.86;101930.31;5034798;28;20510;-51
2023/01/29 03:45:07;;;;;;;10.00;6.78;;;;;;;18.45;40.89;101932.97;5034678;28;20045;-51
2023/01/29 03:48:04;;;;;;;7.28;6.40;;;;;;;18.44;40.88;101925.91;5034293;28;20057;-54
2023/01/29 03:50:50;;;;;;;8.13;5.97;;;;;;;18.44;40.88;101936.63;5034219;28;20049;-51
2023/01/29 03:53:24;;;;;;;8.20;6.75;;;;;;;18.43;40.95;101926.84;5034048;28;20057;-51
2023/01/29 03:56:02;;;;;;;9.63;7.03;;;;;;;18.43;41.08;101930.41;5033727;28;20400;-50
2023/01/29 03:58:47;;;;;;;7.93;5.88;;;;;;;18.42;41.02;101917.94;5035728;28;20045;-50
2023/01/29 04:01:24;;;;;;;8.70;6.15;;;;;;;18.43;40.90;101921.47;5034484;28;20045;-49
2023/01/29 04:04:00;;;;;;;9.13;6.65;;;;;;;18.43;40.95;101926.84;5034096;28;20045;-48
2023/01/29 04:06:33;;;;;;;8.45;6.30;;;;;;;18.42;40.81;101927.81;5034146;28;20057;-49
2023/01/29 04:09:11;;;;;;;6.88;6.05;;;;;;;18.43;41.05;101934.88;5034147;28;20415;-51
2023/01/29 04:11:46;;;;;;;8.93;6.60;;;;;;;18.42;40.77;101927.81;5034036;28;20496;-50
2023/01/29 04:14:15;;;;;;;7.07;6.28;;;;;;;18.41;40.80;101926.94;5034072;28;20061;-51
2023/01/29 04:16:50;;;;;;;7.63;6.82;;;;;;;18.41;40.76;101932.31;5049992;28;20057;-52
2023/01/29 04:19:38;;;;;;;7.88;6.65;;;;;;;18.40;40.85;101933.28;5035051;28;20522;-53
2023/01/29 04:22:26;;;;;;;7.10;6.20;;;;;;;18.41;40.75;101943.03;5033586;28;20050;-51
2023/01/29 04:24:54;;;;;;;9.25;6.80;;;;;;;18.40;40.74;101940.47;5035039;28;20041;-52
2023/01/29 04:27:24;;;;;;;7.82;6.35;;;;;;;18.40;40.92;101940.47;5050173;28;20052;-52
2023/01/29 04:30:05;;;;;;;7.78;5.95;;;;;;;18.39;40.53;101944.97;5033762;28;20056;-48
2023/01/29 04:32:39;;;;;;;7.32;5.97;;;;;;;18.39;40.85;101944.09;5033392;28;20536;-47
2023/01/29 04:35:19;;;;;;;7.35;5.90;;;;;;;18.39;40.77;101939.63;5034870;28;20053;-47
2023/01/29 04:38:32;;;;;;;7.50;6.15;;;;;;;18.39;40.65;101933.38;5033514;28;20049;-49
2023/01/29 04:41:06;;;;;;;8.43;6.75;;;;;;;18.39;40.84;101938.72;5034725;28;20049;-47
2023/01/29 04:43:58;;;;;;;6.97;5.63;;;;;;;18.38;41.00;101942.38;5034768;28;20400;-48
2023/01/29 04:46:34;;;;;;;7.55;6.20;;;;;;;18.38;40.93;101945.06;5034613;28;20041;-47
2023/01/29 04:49:20;;;;;;;8.70;7.18;;;;;;;18.38;40.75;101948.59;5033771;28;20057;-53
2023/01/29 04:51:53;;;;;;;8.20;6.50;;;;;;;18.38;40.83;101947.75;5034647;28;20067;-51
2023/01/29 04:54:43;;;;;;;;;;;;;;;18.38;40.73;101953.09;5035213;28;20052;-50
2023/01/29 04:57:22;;;;;;;8.85;6.60;;;;;;;18.38;40.92;101947.75;5033794;28;19936;-53
2023/01/29 04:59:58;;;;;;;7.50;6.50;;;;;;;18.37;40.87;101949.56;5034634;28;20065;-51
2023/01/29 05:02:26;;;;;;;6.88;5.95;;;;;;;18.37;40.87;101949.56;5034650;28;20478;-52
2023/01/29 05:04:57;;;;;;;11.05;6.88;;;;;;;18.37;40.67;101951.38;5034411;28;20057;-51
2023/01/29 05:07:27;;;;;;;7.47;6.63;;;;;;;18.37;40.94;101951.38;5034281;28;20369;-52
2023/01/29 05:09:55;;;;;;;7.43;5.75;;;;;;;18.36;40.77;101953.22;5034332;28;20057;-53
2023/01/29 05:12:25;;;;;;;6.78;5.82;;;;;;;18.36;40.69;101955.03;5034704;28;20042;-51
2023/01/29 05:14:57;;;;;;;6.85;5.88;;;;;;;18.35;40.66;101954.19;5034256;28;20046;-51
2023/01/29 05:17:24;;;;;;;7.00;5.30;;;;;;;18.36;40.53;101960.41;5034015;28;20413;-52
2023/01/29 05:19:51;;;;;;;7.18;6.25;;;;;;;18.35;40.54;101967.56;5034021;28;20049;-47
2023/01/29 05:22:21;;;;;;;6.78;5.57;;;;;;;18.35;40.55;101964.00;5033780;28;20046;-48
2023/01/29 05:24:49;;;;;;;8.15;6.05;;;;;;;18.35;40.63;101977.41;5034040;28;20049;-48
2023/01/29 05:30:10;;;;;;;7.55;6.75;;;;;;;18.35;40.43;101988.13;5034088;28;20053;-52
2023/01/29 05:32:38;;;;;;;7.93;6.70;;;;;;;18.33;40.40;101982.03;5033871;28;20045;-51
2023/01/29 05:35:06;;;;;;;6.68;5.95;;;;;;;18.33;40.44;101988.25;5033893;28;20045;-51
2023/01/29 05:37:33;;;;;;;7.97;6.43;;;;;;;18.33;40.59;101993.59;5033858;28;20064;-52
2023/01/29 05:40:00;;;;;;;7.05;5.88;;;;;;;18.33;40.38;101992.75;5034139;28;20049;-49
2023/01/29 05:42:28;;;;;;;7.40;5.75;;;;;;;18.32;40.45;101996.41;5033732;28;20041;-47
2023/01/29 05:44:55;;;;;;;7.60;6.05;;;;;;;18.32;40.56;101999.94;5033721;28;20060;-48
2023/01/29 05:47:22;;;;;;;7.32;5.88;;;;;;;18.32;40.58;101999.09;5033646;28;20045;-48
2023/01/29 05:49:50;;;;;;;7.30;6.35;;;;;;;18.32;40.32;102007.97;5034059;28;20049;-48
2023/01/29 05:52:17;;;;;;;7.65;5.60;;;;;;;18.31;40.59;102002.69;5033673;28;20045;-47
2023/01/29 05:54:44;;;;;;;8.27;6.32;;;;;;;18.31;40.68;102002.69;5033521;28;20049;-47
2023/01/29 05:57:13;;;;;;;7.82;5.78;;;;;;;18.31;40.76;102005.38;5033710;28;20049;-48
2023/01/29 05:59:40;;;;;;;8.18;6.22;;;;;;;18.32;40.72;102001.75;5033611;28;20056;-51
2023/01/29 06:02:08;;;;;;;7.32;5.70;;;;;;;18.29;40.92;102003.66;5033272;28;20041;-53
2023/01/29 06:04:35;;;;;;;7.65;5.57;;;;;;;18.31;41.06;101997.34;5033539;28;20050;-50
2023/01/29 06:07:03;;;;;;;6.40;5.13;;;;;;;18.30;40.79;101996.47;5033556;28;20052;-51
2023/01/29 06:09:31;;;;;;;7.35;6.40;;;;;;;18.29;40.72;102003.66;5033647;28;20053;-51
2023/01/29 06:11:58;;;;;;;7.70;6.15;;;;;;;18.29;40.81;102003.66;5033530;28;20046;-51
2023/01/29 06:14:25;;;;;;;8.38;6.45;;;;;;;18.29;40.98;102008.16;5033367;28;20419;-52
2023/01/29 06:16:53;;;;;;;6.88;5.95;;;;;;;18.29;41.04;102008.16;5033189;28;20056;-53
2023/01/29 06:19:20;;;;;;;7.68;5.70;;;;;;;18.28;40.88;102012.66;5033070;28;20042;-48
2023/01/29 06:21:47;;;;;;;7.07;5.72;;;;;;;18.28;41.02;102001.94;5031068;28;20056;-48
2023/01/29 06:24:15;;;;;;;6.78;5.35;;;;;;;18.29;41.29;102018.88;5033331;28;20487;-46
2023/01/29 06:26:42;;;;;;;10.57;5.53;;;;;;;18.28;41.00;102015.34;5032965;28;20076;-48
2023/01/29 06:29:10;;;;;;;8.55;5.43;;;;;;;18.27;40.95;102013.63;5033412;28;20046;-52
2023/01/29 06:31:37;;;;;;;7.40;5.88;;;;;;;18.28;41.07;102011.81;5032733;28;20058;-54
2023/01/29 06:34:07;;;;;;;10.18;6.05;;;;;;;18.27;40.88;102018.09;5032855;28;20046;-54
2023/01/29 06:36:34;;;;;;;6.63;4.90;;;;;;;18.27;40.95;102020.78;5032871;28;20053;-51
2023/01/29 06:39:02;;;;;;;7.60;5.97;;;;;;;18.27;40.95;102019.00;5033191;28;20050;-52
2023/01/29 06:41:30;;;;;;;9.23;5.53;;;;;;;18.26;40.80;102017.25;5033083;28;20038;-50
2023/01/29 06:43:57;;;;;;;7.50;6.00;;;;;;;18.27;40.81;102021.69;5032815;28;20042;-52
2023/01/29 06:46:24;;;;;;;6.38;5.03;;;;;;;18.27;40.63;102023.47;5033043;28;20045;-51
2023/01/29 06:48:52;;;;;;;7.88;5.88;;;;;;;18.27;40.60;102027.03;5033022;28;20045;-48
2023/01/29 06:51:21;;;;;;;7.03;5.43;;;;;;;18.25;40.81;102039.66;5032700;28;20050;-52
2023/01/29 06:53:49;;;;;;;6.00;5.32;;;;;;;18.26;40.73;102041.38;5031874;28;20041;-50
2023/01/29 06:56:16;;;;;;;7.20;5.70;;;;;;;18.25;40.81;102042.34;5032820;28;20050;-48
2023/01/29 06:58:43;;;;;;;7.40;5.93;;;;;;;18.24;40.70;102040.63;5033503;28;20104;-49
2023/01/29 07:01:11;;;;;;;7.47;6.13;;;;;;;18.25;40.65;102044.16;5033278;28;20056;-49
2023/01/29 07:03:59;;;;;;;8.88;5.70;;;;;;;18.23;40.63;102038.91;5032925;28;20411;-46
2023/01/29 07:06:30;;;;;;;6.78;5.78;;;;;;;18.23;40.67;102038.91;5032995;28;20080;-48
2023/01/29 07:08:57;;;;;;;8.43;6.20;;;;;;;18.23;40.74;102044.28;5032922;28;20376;-51
2023/01/29 07:11:24;;;;;;;9.13;6.13;;;;;;;18.23;40.67;102046.06;5032866;28;20052;-50
2023/01/29 07:13:52;;;;;;;6.75;5.40;;;;;;;18.23;40.79;102057.66;5035819;28;20064;-52
2023/01/29 07:16:19;;;;;;;7.20;5.80;;;;;;;18.23;40.65;102054.09;5036516;28;20045;-54
2023/01/29 07:18:46;;;;;;;7.00;5.85;;;;;;;18.23;41.01;102051.41;5036727;28;20053;-48
2023/01/29 07:21:14;;;;;;;8.35;6.47;;;;;;;18.22;40.88;102058.59;5036369;28;20049;-48
2023/01/29 07:23:42;;;;;;;6.97;5.63;;;;;;;18.23;40.78;102063.03;5036314;28;20050;-46
2023/01/29 07:26:10;;;;;;;5.97;5.10;;;;;;;18.23;40.88;102064.81;5034330;28;20115;-46
2023/01/29 07:28:39;;;;;;;7.00;6.10;;;;;;;18.22;40.74;102068.47;5036857;28;20062;-49
2023/01/29 07:31:07;;;;;;;7.57;6.15;;;;;;;18.22;40.79;102072.00;5035941;28;20061;-48
2023/01/29 07:33:34;;;;;;;8.13;5.78;;;;;;;18.21;40.90;102067.59;5036057;28;20041;-48
2023/01/29 07:36:06;;;;;;;7.30;6.00;;;;;;;18.22;40.83;102077.38;5036160;28;20098;-47
2023/01/29 07:38:34;;;;;;;6.88;5.75;;;;;;;18.22;40.90;102079.19;5036004;28;20056;-48
2023/01/29 07:41:01;;;;;;;7.50;6.30;;;;;;;18.22;40.96;102081.88;5035704;28;20052;-47
2023/01/29 07:43:29;;;;;;;7.70;6.10;;;;;;;18.22;40.85;102077.38;5035443;28;20044;-48
2023/01/29 07:46:01;;;;;;;8.05;6.15;;;;;;;18.20;40.78;102090.00;5035815;28;20045;-49
2023/01/29 07:48:29;;;;;;;7.80;5.88;;;;;;;18.20;40.98;102092.69;5036063;28;20064;-49
2023/01/29 07:50:57;;;;;;;7.28;6.05;;;;;;;18.20;40.89;102095.38;5035777;28;20095;-49
2023/01/29 07:53:25;;;;;;;9.57;6.53;;;;;;;18.21;40.85;102096.25;5034566;28;20365;-48
2023/01/29 07:55:53;;;;;;;8.13;5.90;;;;;;;18.20;40.81;102097.19;5035437;28;20049;-50
2023/01/29 07:58:20;;;;;;;8.32;6.57;;;;;;;18.20;40.77;102099.88;5035839;28;20046;-51
2023/01/29 08:00:48;;;;;;;8.82;6.68;;;;;;;18.19;41.11;102101.69;5035677;28;20041;-51
2023/01/29 08:03:17;;;;;;;10.20;6.15;;;;;;;18.19;40.83;102107.06;5035513;28;20037;-54
2023/01/29 08:05:45;;;;;;;7.00;5.63;;;;;;;18.19;40.96;102109.75;5035535;28;20049;-52
2023/01/29 08:08:13;;;;;;;8.68;6.78;;;;;;;18.19;40.83;102111.53;5035556;28;20045;-51
2023/01/29 08:10:40;;;;;;;7.60;6.00;;;;;;;18.18;40.90;102116.03;5034163;28;20052;-49
2023/01/29 08:13:08;;;;;;;7.45;5.75;;;;;;;18.20;40.88;102119.50;5033966;28;20061;-49
2023/01/29 08:15:36;;;;;;;6.50;5.35;;;;;;;18.20;40.74;102124.00;5035187;28;20476;-48
2023/01/29 08:18:05;;;;;;;7.65;5.53;;;;;;;18.20;40.91;102122.19;5035479;28;20050;-51
2023/01/29 08:20:38;;;;;;;8.80;6.28;;;;;;;18.19;40.73;102120.47;5035369;28;20045;-51
2023/01/29 08:23:11;;;;;;;8.15;6.18;;;;;;;18.20;40.75;102124.00;5034803;28;20048;-50
2023/01/29 08:25:39;;;;;;;7.03;5.90;;;;;;;18.20;40.80;102130.22;5035148;28;20056;-52
2023/01/29 08:28:07;;;;;;;7.70;6.05;;;;;;;18.21;40.86;102131.09;5035248;28;20052;-52
2023/01/29 08:30:35;;;;;;;9.13;6.32;;;;;;;18.21;40.92;102139.13;5035135;28;20056;-51
2023/01/29 08:33:03;;;;;;;6.75;5.38;;;;;;;18.22;40.84;102143.53;5034628;28;20045;-51
2023/01/29 08:35:30;;;;;;;7.53;5.80;;;;;;;18.23;40.97;102154.16;5034493;28;20045;-53
2023/01/29 08:38:00;;;;;;;7.25;5.45;;;;;;;18.25;40.98;102168.31;5034329;28;20052;-53
2023/01/29 08:40:30;;;;;;;7.85;6.03;;;;;;;18.24;41.04;102158.56;5034878;28;20049;-54
2023/01/29 08:42:59;;;;;;;9.82;6.28;;;;;;;18.25;41.19;102157.59;5034723;28;20056;-48
2023/01/29 08:45:31;;;;;;;8.10;6.15;;;;;;;18.26;41.27;102153.97;5034865;28;20046;-50
2023/01/29 08:47:59;;;;;;;8.27;6.13;;;;;;;18.27;41.27;102153.03;5035120;28;20116;-50
2023/01/29 08:50:28;;;;;;;6.57;5.25;;;;;;;18.28;41.15;102157.44;5034726;28;20124;-48
2023/01/29 08:52:58;;;;;;;7.75;5.80;;;;;;;18.29;41.10;102159.16;5034440;28;20045;-48
2023/01/29 08:55:26;;;;;;;7.38;5.00;;;;;;;18.31;41.62;102163.53;5033994;28;20053;-48
2023/01/29 08:57:56;;;;;;;10.63;6.28;;;;;;;18.32;41.61;102162.59;5034101;28;20387;-48
2023/01/29 09:00:23;;;;;;;7.50;5.82;;;;;;;18.32;41.64;102163.47;5034306;28;20392;-51
2023/01/29 09:02:51;;;;;;;10.32;6.25;;;;;;;18.32;41.53;102160.78;5034178;28;20049;-51
2023/01/29 09:05:18;;;;;;;6.47;5.40;;;;;;;18.33;41.60;102167.00;5033912;28;20053;-51
2023/01/29 09:07:46;;;;;;;9.75;6.18;;;;;;;18.34;41.58;102166.03;5033530;28;20052;-51
2023/01/29 09:10:14;;;;;;;9.85;5.75;;;;;;;18.35;42.00;102165.09;5032694;28;20503;-51
2023/01/29 09:12:42;;;;;;;11.35;5.47;;;;;;;18.38;42.65;102167.59;5033975;28;20050;-51
2023/01/29 09:15:10;;;;;;;9.05;5.75;;;;;;;18.38;42.20;102168.44;5034022;28;20053;-53
2023/01/29 09:17:37;;;;;;;11.13;7.82;;;;;;;18.39;40.22;102164.84;5034404;28;20057;-52
2023/01/29 09:20:05;;;;;;;10.82;8.55;;;;;;;18.39;38.84;102167.50;5034162;28;20049;-50
2023/01/29 09:22:33;;;;;;;12.98;10.23;;;;;;;18.39;37.74;102174.66;5033929;28;20052;-51
2023/01/29 09:25:00;;;;;;;14.32;10.57;;;;;;;18.36;36.94;102170.38;5033922;28;20045;-50
2023/01/29 09:27:27;;;;;;;14.25;10.98;;;;;;;18.36;36.75;102172.19;5033968;28;20056;-50
2023/01/29 09:29:55;;;;;;;11.80;10.15;;;;;;;18.35;37.39;102175.81;5033721;28;20491;-51
2023/01/29 09:32:22;;;;;;;11.43;9.63;;;;;;;18.35;37.08;102175.81;5033512;28;20057;-55
2023/01/29 09:35:10;;;;;;;14.77;11.88;;;;;;;18.34;36.13;102172.25;5031432;28;20480;-50
2023/01/29 09:37:37;;;;;;;18.77;12.02;;;;;;;18.33;35.67;102180.41;5033116;28;20676;-51
2023/01/29 09:40:05;;;;;;;16.88;12.52;;;;;;;18.31;34.97;102176.94;5033641;28;20483;-48
2023/01/29 09:42:47;;;;;;;14.10;11.68;;;;;;;18.30;34.94;102176.09;5033606;28;20045;-47
2023/01/29 09:45:23;;;;;;;14.05;11.20;;;;;;;18.28;35.05;102168.16;5033397;28;20061;-48
2023/01/29 09:47:52;;;;;;;12.10;9.13;;;;;;;18.30;37.49;102170.72;5033416;28;20041;-47
2023/01/29 09:50:22;;;;;;;9.50;7.65;;;;;;;18.34;38.49;102166.91;5033212;28;20041;-47
2023/01/29 09:53:00;;;;;;;11.02;8.52;;;;;;;18.36;38.32;102170.38;5033349;28;20045;-46
2023/01/29 09:55:38;;;;;;;9.68;7.82;;;;;;;18.37;38.22;102163.19;5033129;28;20037;-47
2023/01/29 09:58:18;;;;;;;10.98;8.20;;;;;;;18.39;38.22;102164.84;5033064;28;20049;-50
2023/01/29 10:01:07;;;;;;;10.10;7.35;;;;;;;18.41;38.49;102165.59;5032790;28;20057;-52
2023/01/29 10:03:53;;;;;;;10.45;7.10;;;;;;;18.43;38.44;102160.13;5033487;28;20061;-53
2023/01/29 10:06:57;;;;;;;8.73;6.85;;;;;;;18.43;38.79;102158.31;5033241;28;20498;-54
2023/01/29 10:10:01;;;;;;;10.80;6.95;;;;;;;18.44;38.75;102154.69;5033577;28;20041;-53
2023/01/29 10:12:39;;;;;;;;;;;;;;;18.44;38.88;102151.13;5034099;28;20060;-52
2023/01/29 10:15:29;;;;;;;8.15;6.13;;;;;;;18.44;38.90;102152.00;5032953;28;20394;-51
2023/01/29 10:18:19;;;;;;;8.50;5.97;;;;;;;18.45;38.74;102144.81;5033253;28;20076;-46
2023/01/29 10:21:19;;;;;;;6.53;5.78;;;;;;;18.46;38.95;102144.69;5032953;28;20065;-50
2023/01/29 10:23:51;;;;;;;9.35;6.68;;;;;;;18.46;39.14;102150.06;5032746;28;20050;-50
2023/01/29 10:26:22;;;;;;;7.68;6.05;;;;;;;18.46;39.25;102143.84;5033083;28;20483;-51
2023/01/29 10:28:54;;;;;;;7.20;5.70;;;;;;;18.47;39.35;102142.88;5032969;28;20056;-47
2023/01/29 10:31:31;;;;;;;7.97;5.70;;;;;;;18.46;39.27;102136.66;5032902;28;20053;-47
2023/01/29 10:34:06;;;;;;;10.30;6.50;;;;;;;18.46;39.37;102128.63;5032977;28;20075;-47
2023/01/29 10:36:41;;;;;;;10.73;6.50;;;;;;;18.48;39.12;102133.91;5033290;28;20054;-46
2023/01/29 10:39:17;;;;;;;8.88;5.68;;;;;;;18.47;39.57;102134.84;5033671;28;20392;-48
2023/01/29 10:42:15;;;;;;;9.98;5.90;;;;;;;18.48;39.48;102141.94;5033348;28;20057;-49
2023/01/29 10:45:19;;;;;;;8.95;6.03;;;;;;;18.47;39.33;102130.38;5033160;28;20046;-47
2023/01/29 10:48:03;;;;;;;6.93;5.57;;;;;;;18.48;39.32;102137.44;5036205;28;20056;-48
2023/01/29 10:50:39;;;;;;;;;;;;;;;18.47;39.29;102127.69;5037014;28;20041;-49
2023/01/29 10:53:27;;;;;;;9.20;5.57;;;;;;;18.48;39.58;102132.09;5036016;28;19921;-47
2023/01/29 10:56:06;;;;;;;8.82;5.65;;;;;;;18.47;39.70;102119.63;5036040;28;20048;-47
2023/01/29 10:58:55;;;;;;;10.05;5.55;;;;;;;18.47;39.59;102114.28;5036565;28;20045;-55
2023/01/29 11:01:23;;;;;;;9.93;5.55;;;;;;;18.47;39.66;102103.56;5036318;28;20056;-52
2023/01/29 11:03:57;;;;;;;19.08;14.30;;;;;;;18.48;39.34;102102.59;5035938;28;20384;-52
2023/01/29 11:06:30;;;;;;;11.32;9.25;;;;;;;18.47;39.69;102090.13;5035330;28;20042;-52
2023/01/29 11:09:04;;;;;;;11.02;8.50;;;;;;;18.49;39.80;102092.72;5051373;28;20048;-50
2023/01/29 11:11:45;;;;;;;11.20;7.88;;;;;;;18.49;39.69;102092.72;5045893;28;20475;-48
2023/01/29 11:14:21;;;;;;;10.70;8.05;;;;;;;18.50;39.57;102091.75;5041918;28;20041;-48
2023/01/29 11:16:49;;;;;;;9.45;7.13;;;;;;;18.48;39.77;102080.28;5035716;28;20052;-50
2023/01/29 11:19:17;;;;;;;12.82;8.52;;;;;;;18.49;39.47;102074.81;5035818;28;20053;-55
2023/01/29 11:21:51;;;;;;;11.82;7.95;;;;;;;18.50;39.86;102073.84;5035248;28;20052;-55
2023/01/29 11:24:18;;;;;;;10.73;7.75;;;;;;;18.49;39.74;102068.59;5035902;28;20041;-54
2023/01/29 11:26:48;;;;;;;11.68;8.23;;;;;;;18.50;39.73;102071.16;5044309;28;20514;-54
2023/01/29 11:29:32;;;;;;;9.25;7.90;;;;;;;18.50;39.79;102057.75;5055661;28;20049;-54
2023/01/29 11:32:04;;;;;;;13.82;9.93;;;;;;;18.50;39.85;102051.53;5050914;28;20404;-55
2023/01/29 11:34:33;;;;;;;13.77;9.10;;;;;;;18.50;39.74;102046.16;5051390;28;20048;-52
2023/01/29 11:37:15;;;;;;;10.93;8.35;;;;;;;18.51;39.30;102047.88;5055655;28;20052;-50
2023/01/29 11:39:46;;;;;;;13.13;9.05;;;;;;;18.50;39.93;102047.03;5055929;28;20056;-50
2023/01/29 11:42:21;;;;;;;10.85;8.45;;;;;;;18.52;40.10;102039.75;5054754;28;20506;-49
2023/01/29 11:44:49;;;;;;;12.23;8.77;;;;;;;18.51;39.94;102032.69;5054863;28;20045;-46
2023/01/29 11:47:20;;;;;;;12.68;8.80;;;;;;;18.51;39.94;102026.41;5053280;28;20083;-48
2023/01/29 11:49:50;;;;;;;11.20;8.70;;;;;;;18.51;39.97;102027.31;5055204;28;20049;-47
2023/01/29 11:52:20;;;;;;;10.50;9.02;;;;;;;18.52;39.93;102025.50;5054724;28;20049;-47
2023/01/29 11:55:14;;;;;;;10.75;8.65;;;;;;;18.52;39.95;102017.44;5053686;28;20056;-46
2023/01/29 11:57:42;;;;;;;;;;;;;;;18.52;40.07;102017.44;5055288;28;20491;-48
2023/01/29 12:00:13;;;;;;;15.05;8.85;;;;;;;18.51;39.85;102005.88;5055375;28;19925;-52
2023/01/29 12:02:44;;;;;;;12.27;8.95;;;;;;;18.52;39.98;102004.03;5042692;28;20487;-51
2023/01/29 12:05:17;;;;;;;11.27;9.27;;;;;;;18.52;39.82;102004.03;5035023;28;20497;-52
2023/01/29 12:07:47;;;;;;;;;;;;;;;18.52;39.87;102001.34;5036329;28;20056;-54
2023/01/29 12:10:38;;;;;;;12.30;10.07;;;;;;;18.52;39.86;101991.47;5035339;28;20295;-54
2023/01/29 12:13:08;;;;;;;12.57;9.98;;;;;;;18.52;39.90;101987.94;5035006;28;20052;-54
2023/01/29 12:15:40;;;;;;;12.85;9.88;;;;;;;18.52;39.84;101977.22;5035366;28;20053;-51
2023/01/29 12:18:16;;;;;;;12.18;10.10;;;;;;;18.52;39.90;101978.06;5037195;28;20048;-51
2023/01/29 12:20:53;;;;;;;11.95;9.23;;;;;;;18.51;39.82;101968.31;5034194;28;20056;-47
2023/01/29 12:23:29;;;;;;;11.25;9.20;;;;;;;18.52;39.93;101966.50;5035195;28;20049;-48
2023/01/29 12:26:15;;;;;;;13.02;10.35;;;;;;;18.52;40.07;101967.34;5034931;28;20045;-49